sensor_id;sensor_type;location;lat;lon;timestamp;pressure;altitude;pressure_sealevel;temperature;humidity
74834;BME280;63361;52.384;20.930;2023-07-22T00:01:26;99973.78;;;16.02;100.00
74834;BME280;63361;52.384;20.930;2023-07-22T00:03:52;99965.72;;;16.05;100.00
74834;BME280;63361;52.384;20.930;2023-07-22T00:06:17;99968.03;;;15.95;100.00
74834;BME280;63361;52.384;20.930;2023-07-22T00:08:42;99957.81;;;15.83;100.00
74834;BME280;63361;52.384;20.930;2023-07-22T00:11:08;99975.38;;;15.94;100.00
74834;BME280;63361;52.384;20.930;2023-07-22T00:13:33;99969.66;;;15.87;100.00
74834;BME280;63361;52.384;20.930;2023-07-22T00:15:59;99973.34;;;15.82;100.00
74834;BME280;63361;52.384;20.930;2023-07-22T00:18:26;99976.88;;;15.83;100.00
74834;BME280;63361;52.384;20.930;2023-07-22T00:20:53;99975.75;;;15.75;100.00
74834;BME280;63361;52.384;20.930;2023-07-22T00:23:19;99957.13;;;15.57;100.00
74834;BME280;63361;52.384;20.930;2023-07-22T00:25:45;99960.13;;;15.46;100.00
74834;BME280;63361;52.384;20.930;2023-07-22T00:28:10;99952.63;;;15.35;100.00
74834;BME280;63361;52.384;20.930;2023-07-22T00:30:36;99965.25;;;15.31;100.00
74834;BME280;63361;52.384;20.930;2023-07-22T00:33:01;99960.97;;;15.21;100.00
74834;BME280;63361;52.384;20.930;2023-07-22T00:35:27;99963.19;;;15.19;100.00
74834;BME280;63361;52.384;20.930;2023-07-22T00:37:52;99949.94;;;15.09;100.00
74834;BME280;63361;52.384;20.930;2023-07-22T00:40:18;99975.34;;;15.13;100.00
74834;BME280;63361;52.384;20.930;2023-07-22T00:42:44;99969.59;;;15.06;100.00
74834;BME280;63361;52.384;20.930;2023-07-22T00:45:09;99952.84;;;14.95;100.00
74834;BME280;63361;52.384;20.930;2023-07-22T00:47:35;99961.59;;;15.01;100.00
74834;BME280;63361;52.384;20.930;2023-07-22T00:50:06;99956.50;;;14.99;100.00
74834;BME280;63361;52.384;20.930;2023-07-22T00:52:33;99952.81;;;15.04;100.00
74834;BME280;63361;52.384;20.930;2023-07-22T00:54:58;99942.25;;;15.02;100.00
74834;BME280;63361;52.384;20.930;2023-07-22T00:57:24;99954.09;;;15.06;100.00
74834;BME280;63361;52.384;20.930;2023-07-22T00:59:50;99952.81;;;15.04;100.00
74834;BME280;63361;52.384;20.930;2023-07-22T01:02:16;99968.19;;;15.08;100.00
74834;BME280;63361;52.384;20.930;2023-07-22T01:04:43;99961.94;;;15.08;100.00
74834;BME280;63361;52.384;20.930;2023-07-22T01:07:08;99967.53;;;15.11;100.00
74834;BME280;63361;52.384;20.930;2023-07-22T01:09:39;99964.97;;;15.15;100.00
74834;BME280;63361;52.384;20.930;2023-07-22T01:12:05;99935.84;;;14.98;100.00
74834;BME280;63361;52.384;20.930;2023-07-22T01:14:33;99953.47;;;15.09;100.00
74834;BME280;63361;52.384;20.930;2023-07-22T01:17:00;99949.94;;;15.09;100.00
74834;BME280;63361;52.384;20.930;2023-07-22T01:19:26;99939.22;;;15.04;100.00
74834;BME280;63361;52.384;20.930;2023-07-22T01:21:52;99930.28;;;15.03;100.00
74834;BME280;63361;52.384;20.930;2023-07-22T01:24:18;99920.22;;;14.95;100.00
74834;BME280;63361;52.384;20.930;2023-07-22T01:26:43;99932.03;;;14.99;100.00
74834;BME280;63361;52.384;20.930;2023-07-22T01:29:09;99925.66;;;14.95;100.00
74834;BME280;63361;52.384;20.930;2023-07-22T01:31:34;99923.38;;;15.14;100.00
74834;BME280;63361;52.384;20.930;2023-07-22T01:34:00;99932.50;;;15.19;100.00
74834;BME280;63361;52.384;20.930;2023-07-22T01:36:26;99937.47;;;15.25;100.00
74834;BME280;63361;52.384;20.930;2023-07-22T01:38:51;99951.19;;;15.37;100.00
74834;BME280;63361;52.384;20.930;2023-07-22T01:41:16;99949.56;;;15.54;100.00
74834;BME280;63361;52.384;20.930;2023-07-22T01:43:42;99960.28;;;15.59;100.00
74834;BME280;63361;52.384;20.930;2023-07-22T01:46:07;99928.44;;;15.51;100.00
74834;BME280;63361;52.384;20.930;2023-07-22T01:48:32;99927.19;;;15.39;100.00
74834;BME280;63361;52.384;20.930;2023-07-22T01:50:58;99926.69;;;15.46;100.00
74834;BME280;63361;52.384;20.930;2023-07-22T01:53:23;99928.47;;;15.42;100.00
74834;BME280;63361;52.384;20.930;2023-07-22T01:55:48;99922.06;;;15.38;100.00
74834;BME280;63361;52.384;20.930;2023-07-22T01:58:14;99928.19;;;15.26;100.00
74834;BME280;63361;52.384;20.930;2023-07-22T02:00:40;99916.22;;;15.10;100.00
74834;BME280;63361;52.384;20.930;2023-07-22T02:03:05;99919.72;;;15.10;100.00
74834;BME280;63361;52.384;20.930;2023-07-22T02:05:30;99907.25;;;15.01;100.00
74834;BME280;63361;52.384;20.930;2023-07-22T02:07:56;99913.00;;;15.08;100.00
74834;BME280;63361;52.384;20.930;2023-07-22T02:10:21;99919.88;;;15.23;100.00
74834;BME280;63361;52.384;20.930;2023-07-22T02:12:46;99922.56;;;15.14;100.00
74834;BME280;63361;52.384;20.930;2023-07-22T02:15:12;99927.56;;;15.03;100.00
74834;BME280;63361;52.384;20.930;2023-07-22T02:17:37;99917.81;;;14.94;100.00
74834;BME280;63361;52.384;20.930;2023-07-22T02:20:03;99912.84;;;14.87;100.00
74834;BME280;63361;52.384;20.930;2023-07-22T02:22:30;99900.38;;;14.86;100.00
74834;BME280;63361;52.384;20.930;2023-07-22T02:24:55;99898.47;;;14.78;100.00
74834;BME280;63361;52.384;20.930;2023-07-22T02:27:20;99907.13;;;14.80;100.00
74834;BME280;63361;52.384;20.930;2023-07-22T02:29:45;99885.34;;;14.54;100.00
74834;BME280;63361;52.384;20.930;2023-07-22T02:32:11;99918.63;;;14.77;100.00
74834;BME280;63361;52.384;20.930;2023-07-22T02:34:36;99919.59;;;14.81;100.00
74834;BME280;63361;52.384;20.930;2023-07-22T02:37:02;99922.94;;;14.95;100.00
74834;BME280;63361;52.384;20.930;2023-07-22T02:39:28;99922.44;;;14.93;100.00
74834;BME280;63361;52.384;20.930;2023-07-22T02:41:53;99914.63;;;14.92;100.00
74834;BME280;63361;52.384;20.930;2023-07-22T02:44:18;99898.16;;;14.88;100.00
74834;BME280;63361;52.384;20.930;2023-07-22T02:46:44;99913.00;;;14.99;100.00
74834;BME280;63361;52.384;20.930;2023-07-22T02:49:09;99901.66;;;14.89;100.00
74834;BME280;63361;52.384;20.930;2023-07-22T02:51:35;99907.56;;;14.99;100.00
74834;BME280;63361;52.384;20.930;2023-07-22T02:54:00;99902.44;;;14.98;100.00
74834;BME280;63361;52.384;20.930;2023-07-22T02:56:26;99904.22;;;14.94;100.00
74834;BME280;63361;52.384;20.930;2023-07-22T02:58:51;99899.44;;;14.91;100.00
74834;BME280;63361;52.384;20.930;2023-07-22T03:01:17;99901.31;;;14.99;100.00
74834;BME280;63361;52.384;20.930;2023-07-22T03:03:44;99893.50;;;14.89;100.00
74834;BME280;63361;52.384;20.930;2023-07-22T03:06:09;99913.78;;;15.00;100.00
74834;BME280;63361;52.384;20.930;2023-07-22T03:08:35;99909.47;;;14.99;100.00
74834;BME280;63361;52.384;20.930;2023-07-22T03:11:00;99910.13;;;15.04;100.00
74834;BME280;63361;52.384;20.930;2023-07-22T03:13:26;99911.56;;;15.10;100.00
74834;BME280;63361;52.384;20.930;2023-07-22T03:15:55;99906.94;;;15.11;100.00
74834;BME280;63361;52.384;20.930;2023-07-22T03:18:20;99900.53;;;15.07;100.00
74834;BME280;63361;52.384;20.930;2023-07-22T03:20:45;99907.06;;;15.14;100.00
74834;BME280;63361;52.384;20.930;2023-07-22T03:23:11;99912.81;;;15.22;100.00
74834;BME280;63361;52.384;20.930;2023-07-22T03:25:36;99912.63;;;15.35;100.00
74834;BME280;63361;52.384;20.930;2023-07-22T03:28:05;99915.34;;;15.35;100.00
74834;BME280;63361;52.384;20.930;2023-07-22T03:30:31;99919.03;;;15.39;100.00
74834;BME280;63361;52.384;20.930;2023-07-22T03:32:57;99910.06;;;15.39;100.00
74834;BME280;63361;52.384;20.930;2023-07-22T03:35:22;99926.19;;;15.53;100.00
74834;BME280;63361;52.384;20.930;2023-07-22T03:37:48;99922.06;;;15.55;100.00
74834;BME280;63361;52.384;20.930;2023-07-22T03:40:14;99913.72;;;15.60;100.00
74834;BME280;63361;52.384;20.930;2023-07-22T03:42:42;99919.09;;;15.77;100.00
74834;BME280;63361;52.384;20.930;2023-07-22T03:45:08;99930.88;;;15.99;100.00
74834;BME280;63361;52.384;20.930;2023-07-22T03:47:34;99906.88;;;15.92;100.00
74834;BME280;63361;52.384;20.930;2023-07-22T03:50:00;99924.94;;;16.26;100.00
74834;BME280;63361;52.384;20.930;2023-07-22T03:52:25;99930.53;;;16.30;100.00
74834;BME280;63361;52.384;20.930;2023-07-22T03:54:50;99924.16;;;16.26;100.00
74834;BME280;63361;52.384;20.930;2023-07-22T03:57:16;99921.56;;;16.29;100.00
74834;BME280;63361;52.384;20.930;2023-07-22T03:59:41;99928.59;;;16.60;100.00
74834;BME280;63361;52.384;20.930;2023-07-22T04:02:06;99920.09;;;16.61;100.00
74834;BME280;63361;52.384;20.930;2023-07-22T04:04:32;99917.53;;;16.65;100.00
74834;BME280;63361;52.384;20.930;2023-07-22T04:06:57;99914.41;;;16.75;100.00
74834;BME280;63361;52.384;20.930;2023-07-22T04:09:22;99923.91;;;16.90;100.00
74834;BME280;63361;52.384;20.930;2023-07-22T04:11:48;99919.19;;;16.78;100.00
74834;BME280;63361;52.384;20.930;2023-07-22T04:14:13;99927.44;;;16.90;100.00
74834;BME280;63361;52.384;20.930;2023-07-22T04:16:39;99931.28;;;16.89;100.00
74834;BME280;63361;52.384;20.930;2023-07-22T04:19:05;99919.50;;;16.97;100.00
74834;BME280;63361;52.384;20.930;2023-07-22T04:21:30;99916.84;;;17.09;100.00
74834;BME280;63361;52.384;20.930;2023-07-22T04:23:55;99925.13;;;17.13;100.00
74834;BME280;63361;52.384;20.930;2023-07-22T04:26:20;99931.94;;;17.07;100.00
74834;BME280;63361;52.384;20.930;2023-07-22T04:28:46;99937.53;;;17.10;100.00
74834;BME280;63361;52.384;20.930;2023-07-22T04:31:11;99940.97;;;16.99;100.00
74834;BME280;63361;52.384;20.930;2023-07-22T04:33:36;99924.56;;;16.86;100.00
74834;BME280;63361;52.384;20.930;2023-07-22T04:36:02;99939.00;;;16.87;100.00
74834;BME280;63361;52.384;20.930;2023-07-22T04:38:27;99942.72;;;17.03;100.00
74834;BME280;63361;52.384;20.930;2023-07-22T04:40:53;99940.44;;;17.05;100.00
74834;BME280;63361;52.384;20.930;2023-07-22T04:43:19;99925.31;;;16.96;100.00
74834;BME280;63361;52.384;20.930;2023-07-22T04:45:45;99931.41;;;16.93;100.00
74834;BME280;63361;52.384;20.930;2023-07-22T04:48:14;99931.00;;;16.82;100.00
74834;BME280;63361;52.384;20.930;2023-07-22T04:50:39;99943.03;;;16.81;100.00
74834;BME280;63361;52.384;20.930;2023-07-22T04:53:06;99947.13;;;16.96;100.00
74834;BME280;63361;52.384;20.930;2023-07-22T04:55:32;99948.16;;;17.03;100.00
74834;BME280;63361;52.384;20.930;2023-07-22T04:57:57;99948.88;;;17.12;100.00
74834;BME280;63361;52.384;20.930;2023-07-22T05:00:23;99957.31;;;17.19;100.00
74834;BME280;63361;52.384;20.930;2023-07-22T05:02:48;99955.13;;;17.13;100.00
74834;BME280;63361;52.384;20.930;2023-07-22T05:05:14;99953.19;;;17.13;100.00
74834;BME280;63361;52.384;20.930;2023-07-22T05:07:40;99962.47;;;17.00;100.00
74834;BME280;63361;52.384;20.930;2023-07-22T05:10:06;99950.97;;;16.95;100.00
74834;BME280;63361;52.384;20.930;2023-07-22T05:12:32;99975.94;;;16.97;100.00
74834;BME280;63361;52.384;20.930;2023-07-22T05:14:57;99974.63;;;17.03;100.00
74834;BME280;63361;52.384;20.930;2023-07-22T05:17:23;99984.22;;;17.09;100.00
74834;BME280;63361;52.384;20.930;2023-07-22T05:19:48;99980.09;;;17.03;100.00
74834;BME280;63361;52.384;20.930;2023-07-22T05:22:14;99979.28;;;17.02;100.00
74834;BME280;63361;52.384;20.930;2023-07-22T05:24:40;99977.97;;;17.08;100.00
74834;BME280;63361;52.384;20.930;2023-07-22T05:27:05;99995.47;;;17.07;100.00
74834;BME280;63361;52.384;20.930;2023-07-22T05:29:30;99984.94;;;16.97;100.00
74834;BME280;63361;52.384;20.930;2023-07-22T05:31:56;99988.28;;;17.03;100.00
74834;BME280;63361;52.384;20.930;2023-07-22T05:34:21;99994.06;;;17.01;100.00
74834;BME280;63361;52.384;20.930;2023-07-22T05:36:46;99991.13;;;17.06;100.00
74834;BME280;63361;52.384;20.930;2023-07-22T05:39:12;99990.91;;;17.11;100.00
74834;BME280;63361;52.384;20.930;2023-07-22T05:41:37;99992.88;;;17.11;100.00
74834;BME280;63361;52.384;20.930;2023-07-22T05:44:02;99973.31;;;17.09;100.00
74834;BME280;63361;52.384;20.930;2023-07-22T05:46:28;99987.97;;;17.37;100.00
74834;BME280;63361;52.384;20.930;2023-07-22T05:48:53;99993.50;;;17.62;100.00
74834;BME280;63361;52.384;20.930;2023-07-22T05:51:18;99987.03;;;17.54;100.00
74834;BME280;63361;52.384;20.930;2023-07-22T05:53:44;99996.25;;;17.62;100.00
74834;BME280;63361;52.384;20.930;2023-07-22T05:56:09;99990.44;;;17.63;100.00
74834;BME280;63361;52.384;20.930;2023-07-22T05:58:35;99980.50;;;17.79;100.00
74834;BME280;63361;52.384;20.930;2023-07-22T06:01:00;100002.19;;;18.09;100.00
74834;BME280;63361;52.384;20.930;2023-07-22T06:03:25;99992.75;;;18.43;100.00
74834;BME280;63361;52.384;20.930;2023-07-22T06:05:51;99999.56;;;18.85;100.00
74834;BME280;63361;52.384;20.930;2023-07-22T06:08:16;99999.00;;;18.92;100.00
74834;BME280;63361;52.384;20.930;2023-07-22T06:10:42;100004.31;;;19.01;100.00
74834;BME280;63361;52.384;20.930;2023-07-22T06:13:07;99994.25;;;18.77;100.00
74834;BME280;63361;52.384;20.930;2023-07-22T06:15:33;99999.44;;;18.94;100.00
74834;BME280;63361;52.384;20.930;2023-07-22T06:17:59;99988.25;;;18.99;100.00
74834;BME280;63361;52.384;20.930;2023-07-22T06:20:25;99980.44;;;19.13;100.00
74834;BME280;63361;52.384;20.930;2023-07-22T06:22:50;99985.63;;;19.30;100.00
74834;BME280;63361;52.384;20.930;2023-07-22T06:25:16;99989.16;;;19.31;100.00
74834;BME280;63361;52.384;20.930;2023-07-22T06:27:41;99988.97;;;19.24;100.00
74834;BME280;63361;52.384;20.930;2023-07-22T06:30:07;99994.66;;;19.31;100.00
74834;BME280;63361;52.384;20.930;2023-07-22T06:32:34;99998.38;;;19.51;100.00
74834;BME280;63361;52.384;20.930;2023-07-22T06:34:59;99991.59;;;19.76;100.00
74834;BME280;63361;52.384;20.930;2023-07-22T06:37:25;100006.22;;;20.27;100.00
74834;BME280;63361;52.384;20.930;2023-07-22T06:39:51;100005.84;;;20.76;100.00
74834;BME280;63361;52.384;20.930;2023-07-22T06:42:16;100001.56;;;20.79;100.00
74834;BME280;63361;52.384;20.930;2023-07-22T06:44:43;100014.53;;;21.32;100.00
74834;BME280;63361;52.384;20.930;2023-07-22T06:47:08;100004.09;;;21.41;100.00
74834;BME280;63361;52.384;20.930;2023-07-22T06:49:33;100013.94;;;21.62;100.00
74834;BME280;63361;52.384;20.930;2023-07-22T06:51:58;100014.97;;;21.76;100.00
74834;BME280;63361;52.384;20.930;2023-07-22T06:54:24;100017.28;;;22.89;100.00
74834;BME280;63361;52.384;20.930;2023-07-22T06:56:49;100013.09;;;23.62;100.00
74834;BME280;63361;52.384;20.930;2023-07-22T06:59:14;100023.72;;;24.00;100.00
74834;BME280;63361;52.384;20.930;2023-07-22T07:01:40;100016.72;;;23.36;100.00
74834;BME280;63361;52.384;20.930;2023-07-22T07:04:06;100013.28;;;23.79;100.00
74834;BME280;63361;52.384;20.930;2023-07-22T07:06:31;100030.31;;;25.56;100.00
74834;BME280;63361;52.384;20.930;2023-07-22T07:08:59;100030.78;;;27.18;100.00
74834;BME280;63361;52.384;20.930;2023-07-22T07:11:26;100026.41;;;28.05;69.62
74834;BME280;63361;52.384;20.930;2023-07-22T07:13:52;100038.53;;;28.28;70.45
74834;BME280;63361;52.384;20.930;2023-07-22T07:16:26;100047.19;;;27.72;69.26
74834;BME280;63361;52.384;20.930;2023-07-22T07:18:53;100038.78;;;26.59;70.86
74834;BME280;63361;52.384;20.930;2023-07-22T07:21:19;100042.63;;;25.63;76.91
74834;BME280;63361;52.384;20.930;2023-07-22T07:23:45;100046.44;;;25.40;76.06
74834;BME280;63361;52.384;20.930;2023-07-22T07:26:11;100061.06;;;25.44;76.00
74834;BME280;63361;52.384;20.930;2023-07-22T07:28:36;100051.16;;;25.36;73.31
74834;BME280;63361;52.384;20.930;2023-07-22T07:31:02;100061.72;;;26.85;68.54
74834;BME280;63361;52.384;20.930;2023-07-22T07:33:28;100067.31;;;28.52;58.52
74834;BME280;63361;52.384;20.930;2023-07-22T07:35:54;100073.16;;;29.44;55.81
74834;BME280;63361;52.384;20.930;2023-07-22T07:38:19;100068.94;;;28.91;55.52
74834;BME280;63361;52.384;20.930;2023-07-22T07:40:44;100062.00;;;29.47;52.52
74834;BME280;63361;52.384;20.930;2023-07-22T07:43:09;100064.16;;;28.95;51.92
74834;BME280;63361;52.384;20.930;2023-07-22T07:45:38;100060.81;;;28.21;54.67
74834;BME280;63361;52.384;20.930;2023-07-22T07:48:05;100064.09;;;26.26;59.12
74834;BME280;63361;52.384;20.930;2023-07-22T07:50:31;100076.06;;;28.47;54.01
74834;BME280;63361;52.384;20.930;2023-07-22T07:52:57;100074.13;;;29.91;47.95
74834;BME280;63361;52.384;20.930;2023-07-22T07:55:22;100092.19;;;31.30;41.41
74834;BME280;63361;52.384;20.930;2023-07-22T07:57:47;100097.50;;;32.84;38.76
74834;BME280;63361;52.384;20.930;2023-07-22T08:00:13;100081.22;;;31.19;38.21
74834;BME280;63361;52.384;20.930;2023-07-22T08:02:38;100094.94;;;29.79;41.66
74834;BME280;63361;52.384;20.930;2023-07-22T08:05:04;100102.06;;;30.14;42.14
74834;BME280;63361;52.384;20.930;2023-07-22T08:07:30;100092.97;;;31.70;39.17
74834;BME280;63361;52.384;20.930;2023-07-22T08:09:55;100099.41;;;31.47;38.00
74834;BME280;63361;52.384;20.930;2023-07-22T08:12:22;100091.56;;;31.98;38.16
74834;BME280;63361;52.384;20.930;2023-07-22T08:14:48;100096.97;;;32.73;36.79
74834;BME280;63361;52.384;20.930;2023-07-22T08:17:13;100100.78;;;33.12;34.85
74834;BME280;63361;52.384;20.930;2023-07-22T08:19:39;100104.22;;;31.66;37.00
74834;BME280;63361;52.384;20.930;2023-07-22T08:22:04;100100.09;;;30.88;38.90
74834;BME280;63361;52.384;20.930;2023-07-22T08:24:29;100118.75;;;30.14;39.99
74834;BME280;63361;52.384;20.930;2023-07-22T08:26:55;100114.84;;;30.38;39.81
74834;BME280;63361;52.384;20.930;2023-07-22T08:29:20;100118.44;;;31.52;36.87
74834;BME280;63361;52.384;20.930;2023-07-22T08:31:45;100130.47;;;31.69;36.44
74834;BME280;63361;52.384;20.930;2023-07-22T08:34:11;100123.88;;;33.00;35.25
74834;BME280;63361;52.384;20.930;2023-07-22T08:36:37;100128.41;;;32.61;35.54
74834;BME280;63361;52.384;20.930;2023-07-22T08:39:02;100115.41;;;33.32;34.14
74834;BME280;63361;52.384;20.930;2023-07-22T08:41:29;100125.69;;;32.58;35.64
74834;BME280;63361;52.384;20.930;2023-07-22T08:43:56;100107.88;;;32.19;35.71
74834;BME280;63361;52.384;20.930;2023-07-22T08:46:24;100126.28;;;31.97;36.84
74834;BME280;63361;52.384;20.930;2023-07-22T08:48:53;100119.13;;;31.17;38.41
74834;BME280;63361;52.384;20.930;2023-07-22T08:51:19;100129.25;;;29.35;41.73
74834;BME280;63361;52.384;20.930;2023-07-22T08:53:45;100117.88;;;28.81;41.62
74834;BME280;63361;52.384;20.930;2023-07-22T08:56:11;100124.06;;;28.51;44.33
74834;BME280;63361;52.384;20.930;2023-07-22T08:58:38;100129.06;;;29.87;40.91
74834;BME280;63361;52.384;20.930;2023-07-22T09:01:04;100128.22;;;31.21;37.31
74834;BME280;63361;52.384;20.930;2023-07-22T09:03:30;100136.03;;;30.83;38.70
74834;BME280;63361;52.384;20.930;2023-07-22T09:05:56;100130.94;;;30.77;38.97
74834;BME280;63361;52.384;20.930;2023-07-22T09:08:22;100131.06;;;30.17;39.90
74834;BME280;63361;52.384;20.930;2023-07-22T09:10:48;100117.09;;;32.16;35.80
74834;BME280;63361;52.384;20.930;2023-07-22T09:13:14;100132.69;;;32.49;33.13
74834;BME280;63361;52.384;20.930;2023-07-22T09:15:40;100141.25;;;33.07;31.38
74834;BME280;63361;52.384;20.930;2023-07-22T09:18:06;100148.25;;;32.50;30.34
74834;BME280;63361;52.384;20.930;2023-07-22T09:20:32;100128.50;;;32.58;29.87
74834;BME280;63361;52.384;20.930;2023-07-22T09:22:58;100139.84;;;30.92;32.15
74834;BME280;63361;52.384;20.930;2023-07-22T09:25:26;100145.09;;;31.76;31.92
74834;BME280;63361;52.384;20.930;2023-07-22T09:27:53;100132.88;;;32.75;29.96
74834;BME280;63361;52.384;20.930;2023-07-22T09:30:39;100158.31;;;30.59;33.13
74834;BME280;63361;52.384;20.930;2023-07-22T09:33:07;100146.16;;;30.96;32.35
74834;BME280;63361;52.384;20.930;2023-07-22T09:35:47;100142.84;;;31.68;31.53
74834;BME280;63361;52.384;20.930;2023-07-22T09:38:12;100138.66;;;32.84;31.01
74834;BME280;63361;52.384;20.930;2023-07-22T09:40:41;100138.75;;;33.42;28.99
74834;BME280;63361;52.384;20.930;2023-07-22T09:43:09;100148.97;;;31.99;30.61
74834;BME280;63361;52.384;20.930;2023-07-22T09:45:35;100135.56;;;32.10;30.93
74834;BME280;63361;52.384;20.930;2023-07-22T09:48:02;100132.53;;;33.34;29.48
74834;BME280;63361;52.384;20.930;2023-07-22T09:50:28;100134.56;;;34.04;28.91
74834;BME280;63361;52.384;20.930;2023-07-22T09:52:56;100155.41;;;34.92;26.50
74834;BME280;63361;52.384;20.930;2023-07-22T09:55:25;100153.28;;;33.37;28.30
74834;BME280;63361;52.384;20.930;2023-07-22T09:57:53;100151.66;;;33.52;28.32
74834;BME280;63361;52.384;20.930;2023-07-22T10:00:19;100152.59;;;34.03;28.23
74834;BME280;63361;52.384;20.930;2023-07-22T10:02:46;100143.00;;;32.53;28.77
74834;BME280;63361;52.384;20.930;2023-07-22T10:05:15;100158.03;;;33.07;28.17
74834;BME280;63361;52.384;20.930;2023-07-22T10:07:46;100159.75;;;33.17;27.82
74834;BME280;63361;52.384;20.930;2023-07-22T10:10:15;100160.56;;;34.55;26.55
74834;BME280;63361;52.384;20.930;2023-07-22T10:12:41;100172.75;;;35.69;25.58
74834;BME280;63361;52.384;20.930;2023-07-22T10:15:09;100167.88;;;34.40;27.26
74834;BME280;63361;52.384;20.930;2023-07-22T10:17:35;100174.03;;;32.74;28.82
74834;BME280;63361;52.384;20.930;2023-07-22T10:20:02;100160.28;;;30.32;32.33
74834;BME280;63361;52.384;20.930;2023-07-22T10:22:34;100152.53;;;31.20;32.17
74834;BME280;63361;52.384;20.930;2023-07-22T10:25:01;100161.72;;;33.78;29.10
74834;BME280;63361;52.384;20.930;2023-07-22T10:27:30;100152.84;;;34.21;27.67
74834;BME280;63361;52.384;20.930;2023-07-22T10:29:56;100162.88;;;33.65;27.34
74834;BME280;63361;52.384;20.930;2023-07-22T10:32:21;100152.66;;;31.13;30.60
74834;BME280;63361;52.384;20.930;2023-07-22T10:34:47;100150.50;;;29.56;34.26
74834;BME280;63361;52.384;20.930;2023-07-22T10:37:12;100145.59;;;27.21;37.20
74834;BME280;63361;52.384;20.930;2023-07-22T10:39:37;100151.34;;;25.91;40.21
74834;BME280;63361;52.384;20.930;2023-07-22T10:42:03;100165.22;;;26.06;40.98
74834;BME280;63361;52.384;20.930;2023-07-22T10:44:33;100157.97;;;25.73;41.77
74834;BME280;63361;52.384;20.930;2023-07-22T10:46:59;100160.53;;;26.20;41.27
74834;BME280;63361;52.384;20.930;2023-07-22T10:49:28;100164.06;;;26.17;40.82
74834;BME280;63361;52.384;20.930;2023-07-22T10:52:07;100164.88;;;26.21;41.87
74834;BME280;63361;52.384;20.930;2023-07-22T10:54:35;100173.47;;;25.91;42.68
74834;BME280;63361;52.384;20.930;2023-07-22T10:59:49;100174.06;;;28.44;37.48
74834;BME280;63361;52.384;20.930;2023-07-22T11:02:28;100167.28;;;28.56;37.29
74834;BME280;63361;52.384;20.930;2023-07-22T11:04:58;100160.16;;;27.53;38.57
74834;BME280;63361;52.384;20.930;2023-07-22T11:07:32;100168.47;;;26.29;40.52
74834;BME280;63361;52.384;20.930;2023-07-22T11:09:57;100180.25;;;26.08;41.59
74834;BME280;63361;52.384;20.930;2023-07-22T11:12:24;100171.25;;;25.46;43.16
74834;BME280;63361;52.384;20.930;2023-07-22T11:15:01;100171.09;;;24.77;45.01
74834;BME280;63361;52.384;20.930;2023-07-22T11:17:29;100166.19;;;24.56;45.64
74834;BME280;63361;52.384;20.930;2023-07-22T11:19:56;100184.44;;;24.31;47.47
74834;BME280;63361;52.384;20.930;2023-07-22T11:22:21;100182.69;;;23.85;48.25
74834;BME280;63361;52.384;20.930;2023-07-22T11:24:46;100175.84;;;24.06;48.09
74834;BME280;63361;52.384;20.930;2023-07-22T11:27:12;100188.38;;;23.96;47.88
74834;BME280;63361;52.384;20.930;2023-07-22T11:29:37;100178.50;;;23.95;48.79
74834;BME280;63361;52.384;20.930;2023-07-22T11:32:03;100178.59;;;24.36;48.15
74834;BME280;63361;52.384;20.930;2023-07-22T11:34:29;100179.75;;;24.72;47.50
74834;BME280;63361;52.384;20.930;2023-07-22T11:36:55;100178.91;;;25.70;45.34
74834;BME280;63361;52.384;20.930;2023-07-22T11:39:24;100188.34;;;26.91;42.05
74834;BME280;63361;52.384;20.930;2023-07-22T11:41:50;100182.59;;;28.82;38.65
74834;BME280;63361;52.384;20.930;2023-07-22T11:44:18;100179.69;;;29.78;36.45
74834;BME280;63361;52.384;20.930;2023-07-22T11:47:04;100189.47;;;30.77;34.81
74834;BME280;63361;52.384;20.930;2023-07-22T11:49:43;100184.81;;;31.84;32.43
74834;BME280;63361;52.384;20.930;2023-07-22T11:52:17;100173.78;;;30.87;34.00
74834;BME280;63361;52.384;20.930;2023-07-22T11:54:44;100171.31;;;29.44;35.82
74834;BME280;63361;52.384;20.930;2023-07-22T11:57:18;100171.97;;;27.82;39.32
74834;BME280;63361;52.384;20.930;2023-07-22T11:59:48;100160.25;;;26.79;40.49
74834;BME280;63361;52.384;20.930;2023-07-22T12:02:18;100158.63;;;25.52;42.73
74834;BME280;63361;52.384;20.930;2023-07-22T12:04:56;100154.47;;;25.14;44.69
74834;BME280;63361;52.384;20.930;2023-07-22T12:07:32;100164.19;;;24.97;45.55
74834;BME280;63361;52.384;20.930;2023-07-22T12:10:00;100148.84;;;24.56;48.52
74834;BME280;63361;52.384;20.930;2023-07-22T12:12:36;100148.19;;;24.32;47.87
74834;BME280;63361;52.384;20.930;2023-07-22T12:17:29;100140.94;;;24.54;46.85
74834;BME280;63361;52.384;20.930;2023-07-22T12:19:54;100137.78;;;25.00;44.27
74834;BME280;63361;52.384;20.930;2023-07-22T12:22:20;100149.16;;;26.54;41.45
74834;BME280;63361;52.384;20.930;2023-07-22T12:24:47;100133.34;;;27.11;40.53
74834;BME280;63361;52.384;20.930;2023-07-22T12:27:13;100125.81;;;26.80;40.79
74834;BME280;63361;52.384;20.930;2023-07-22T12:29:38;100140.63;;;28.62;38.70
74834;BME280;63361;52.384;20.930;2023-07-22T12:32:03;100139.53;;;30.10;34.11
74834;BME280;63361;52.384;20.930;2023-07-22T12:34:29;100134.41;;;30.85;32.79
74834;BME280;63361;52.384;20.930;2023-07-22T12:36:55;100136.41;;;31.71;32.37
74834;BME280;63361;52.384;20.930;2023-07-22T12:39:20;100147.84;;;31.96;30.92
74834;BME280;63361;52.384;20.930;2023-07-22T12:41:45;100148.53;;;31.21;30.19